sensor_id;sensor_type;location;lat;lon;timestamp;temperature;humidity
80695;DHT22;70059;42.702;23.312;2023-10-09T00:00:14;19.30;45.60
80695;DHT22;70059;42.702;23.312;2023-10-09T00:02:58;19.20;45.60
80695;DHT22;70059;42.702;23.312;2023-10-09T00:05:29;19.20;45.80
80695;DHT22;70059;42.702;23.312;2023-10-09T00:08:16;19.20;45.50
80695;DHT22;70059;42.702;23.312;2023-10-09T00:10:44;19.30;45.50
80695;DHT22;70059;42.702;23.312;2023-10-09T00:13:24;19.50;45.00
80695;DHT22;70059;42.702;23.312;2023-10-09T00:16:00;19.60;44.70
80695;DHT22;70059;42.702;23.312;2023-10-09T00:18:34;19.50;44.40
80695;DHT22;70059;42.702;23.312;2023-10-09T00:21:01;19.50;44.50
80695;DHT22;70059;42.702;23.312;2023-10-09T00:23:36;19.40;44.90
80695;DHT22;70059;42.702;23.312;2023-10-09T00:26:02;19.30;45.00
80695;DHT22;70059;42.702;23.312;2023-10-09T00:28:38;19.30;44.80
80695;DHT22;70059;42.702;23.312;2023-10-09T00:31:07;19.40;44.80
80695;DHT22;70059;42.702;23.312;2023-10-09T00:33:36;19.40;44.80
80695;DHT22;70059;42.702;23.312;2023-10-09T00:36:05;19.30;44.90
80695;DHT22;70059;42.702;23.312;2023-10-09T00:38:38;19.30;44.50
80695;DHT22;70059;42.702;23.312;2023-10-09T00:41:15;19.40;44.60
80695;DHT22;70059;42.702;23.312;2023-10-09T00:43:46;19.30;44.80
80695;DHT22;70059;42.702;23.312;2023-10-09T00:46:16;19.10;45.50
80695;DHT22;70059;42.702;23.312;2023-10-09T00:48:42;19.10;45.20
80695;DHT22;70059;42.702;23.312;2023-10-09T00:51:08;19.20;45.10
80695;DHT22;70059;42.702;23.312;2023-10-09T00:53:55;19.20;45.50
80695;DHT22;70059;42.702;23.312;2023-10-09T00:56:23;18.80;45.80
80695;DHT22;70059;42.702;23.312;2023-10-09T00:59:01;18.70;46.20
80695;DHT22;70059;42.702;23.312;2023-10-09T01:01:45;18.60;46.00
80695;DHT22;70059;42.702;23.312;2023-10-09T01:04:29;18.60;45.90
80695;DHT22;70059;42.702;23.312;2023-10-09T01:07:02;18.60;46.10
80695;DHT22;70059;42.702;23.312;2023-10-09T01:09:46;18.50;46.30
80695;DHT22;70059;42.702;23.312;2023-10-09T01:12:15;18.40;45.80
80695;DHT22;70059;42.702;23.312;2023-10-09T01:14:44;18.40;45.60
80695;DHT22;70059;42.702;23.312;2023-10-09T01:17:09;18.30;45.70
80695;DHT22;70059;42.702;23.312;2023-10-09T01:19:37;18.00;46.70
80695;DHT22;70059;42.702;23.312;2023-10-09T01:22:03;18.00;46.80
80695;DHT22;70059;42.702;23.312;2023-10-09T01:24:39;18.00;46.70
80695;DHT22;70059;42.702;23.312;2023-10-09T01:27:06;17.90;46.50
80695;DHT22;70059;42.702;23.312;2023-10-09T01:29:40;18.00;46.80
80695;DHT22;70059;42.702;23.312;2023-10-09T01:32:07;17.80;46.70
80695;DHT22;70059;42.702;23.312;2023-10-09T01:34:42;17.80;46.90
80695;DHT22;70059;42.702;23.312;2023-10-09T01:37:13;17.90;47.30
80695;DHT22;70059;42.702;23.312;2023-10-09T01:39:55;18.00;47.10
80695;DHT22;70059;42.702;23.312;2023-10-09T01:42:26;18.00;47.10
80695;DHT22;70059;42.702;23.312;2023-10-09T01:45:13;18.00;47.30
80695;DHT22;70059;42.702;23.312;2023-10-09T01:47:42;17.90;47.30
80695;DHT22;70059;42.702;23.312;2023-10-09T01:50:16;17.90;47.00
80695;DHT22;70059;42.702;23.312;2023-10-09T01:52:47;17.90;46.80
80695;DHT22;70059;42.702;23.312;2023-10-09T01:55:13;17.80;46.40
80695;DHT22;70059;42.702;23.312;2023-10-09T01:57:53;17.70;46.20
80695;DHT22;70059;42.702;23.312;2023-10-09T02:00:19;17.70;46.30
80695;DHT22;70059;42.702;23.312;2023-10-09T02:02:50;17.70;46.00
80695;DHT22;70059;42.702;23.312;2023-10-09T02:05:16;17.70;46.60
80695;DHT22;70059;42.702;23.312;2023-10-09T02:07:42;17.90;46.20
80695;DHT22;70059;42.702;23.312;2023-10-09T02:10:17;17.90;45.60
80695;DHT22;70059;42.702;23.312;2023-10-09T02:13:04;17.90;45.90
80695;DHT22;70059;42.702;23.312;2023-10-09T02:15:37;17.80;45.80
80695;DHT22;70059;42.702;23.312;2023-10-09T02:18:10;17.80;45.40
80695;DHT22;70059;42.702;23.312;2023-10-09T02:23:40;17.70;45.90
80695;DHT22;70059;42.702;23.312;2023-10-09T02:26:19;17.60;46.40
80695;DHT22;70059;42.702;23.312;2023-10-09T02:28:51;17.50;47.40
80695;DHT22;70059;42.702;23.312;2023-10-09T02:31:34;17.40;47.50
80695;DHT22;70059;42.702;23.312;2023-10-09T02:34:06;17.10;47.10
80695;DHT22;70059;42.702;23.312;2023-10-09T02:36:34;17.00;48.40
80695;DHT22;70059;42.702;23.312;2023-10-09T02:39:14;16.90;49.30
80695;DHT22;70059;42.702;23.312;2023-10-09T02:41:57;17.00;48.20
80695;DHT22;70059;42.702;23.312;2023-10-09T02:44:45;16.80;47.90
80695;DHT22;70059;42.702;23.312;2023-10-09T02:47:20;16.70;49.70
80695;DHT22;70059;42.702;23.312;2023-10-09T02:49:50;16.70;49.30
80695;DHT22;70059;42.702;23.312;2023-10-09T02:52:16;16.60;48.60
80695;DHT22;70059;42.702;23.312;2023-10-09T02:54:47;16.60;49.30
80695;DHT22;70059;42.702;23.312;2023-10-09T02:57:13;16.70;49.00
80695;DHT22;70059;42.702;23.312;2023-10-09T02:59:49;16.60;48.70
80695;DHT22;70059;42.702;23.312;2023-10-09T03:02:17;16.50;48.90
80695;DHT22;70059;42.702;23.312;2023-10-09T03:04:44;16.50;49.30
80695;DHT22;70059;42.702;23.312;2023-10-09T03:07:10;16.40;49.60
80695;DHT22;70059;42.702;23.312;2023-10-09T03:09:39;16.30;49.60
80695;DHT22;70059;42.702;23.312;2023-10-09T03:12:06;16.30;49.70
80695;DHT22;70059;42.702;23.312;2023-10-09T03:14:37;16.30;50.10
80695;DHT22;70059;42.702;23.312;2023-10-09T03:17:06;16.10;50.00
80695;DHT22;70059;42.702;23.312;2023-10-09T03:19:37;16.10;49.60
80695;DHT22;70059;42.702;23.312;2023-10-09T03:22:09;15.90;50.20
80695;DHT22;70059;42.702;23.312;2023-10-09T03:24:38;15.60;51.00
80695;DHT22;70059;42.702;23.312;2023-10-09T03:27:05;15.50;51.70
80695;DHT22;70059;42.702;23.312;2023-10-09T03:29:31;15.60;52.20
80695;DHT22;70059;42.702;23.312;2023-10-09T03:31:57;15.70;51.60
80695;DHT22;70059;42.702;23.312;2023-10-09T03:34:23;15.70;51.10
80695;DHT22;70059;42.702;23.312;2023-10-09T03:36:49;15.70;51.00
80695;DHT22;70059;42.702;23.312;2023-10-09T03:39:25;15.70;51.40
80695;DHT22;70059;42.702;23.312;2023-10-09T03:42:12;15.60;50.70
80695;DHT22;70059;42.702;23.312;2023-10-09T03:44:47;16.20;49.30
80695;DHT22;70059;42.702;23.312;2023-10-09T03:47:18;16.20;48.50
80695;DHT22;70059;42.702;23.312;2023-10-09T03:49:49;16.00;48.70
80695;DHT22;70059;42.702;23.312;2023-10-09T03:52:17;15.80;49.50
80695;DHT22;70059;42.702;23.312;2023-10-09T03:54:43;15.40;50.30
80695;DHT22;70059;42.702;23.312;2023-10-09T03:57:13;15.10;51.00
80695;DHT22;70059;42.702;23.312;2023-10-09T03:59:45;15.00;51.90
80695;DHT22;70059;42.702;23.312;2023-10-09T04:02:13;15.00;51.80
80695;DHT22;70059;42.702;23.312;2023-10-09T04:04:38;15.00;51.80
80695;DHT22;70059;42.702;23.312;2023-10-09T04:07:04;15.10;52.80
80695;DHT22;70059;42.702;23.312;2023-10-09T04:09:32;15.30;51.70
80695;DHT22;70059;42.702;23.312;2023-10-09T04:12:05;15.40;50.30
80695;DHT22;70059;42.702;23.312;2023-10-09T04:14:40;15.50;49.70
80695;DHT22;70059;42.702;23.312;2023-10-09T04:17:27;15.60;50.00
80695;DHT22;70059;42.702;23.312;2023-10-09T04:20:02;15.60;49.10
80695;DHT22;70059;42.702;23.312;2023-10-09T04:22:54;15.70;48.80
80695;DHT22;70059;42.702;23.312;2023-10-09T04:25:31;15.70;48.00
80695;DHT22;70059;42.702;23.312;2023-10-09T04:28:03;15.70;48.10
80695;DHT22;70059;42.702;23.312;2023-10-09T04:30:40;15.80;48.60
80695;DHT22;70059;42.702;23.312;2023-10-09T04:33:17;15.70;47.20
80695;DHT22;70059;42.702;23.312;2023-10-09T04:36:07;15.60;48.20
80695;DHT22;70059;42.702;23.312;2023-10-09T04:38:53;15.60;48.10
80695;DHT22;70059;42.702;23.312;2023-10-09T04:41:29;15.60;47.30
80695;DHT22;70059;42.702;23.312;2023-10-09T05:17:42;15.20;45.90
80695;DHT22;70059;42.702;23.312;2023-10-09T05:20:31;15.20;45.80
80695;DHT22;70059;42.702;23.312;2023-10-09T05:23:37;15.30;46.10
80695;DHT22;70059;42.702;23.312;2023-10-09T05:26:41;15.40;45.50
80695;DHT22;70059;42.702;23.312;2023-10-09T05:32:25;15.40;44.60
80695;DHT22;70059;42.702;23.312;2023-10-09T05:35:16;15.40;44.90
80695;DHT22;70059;42.702;23.312;2023-10-09T05:37:43;15.50;44.70
80695;DHT22;70059;42.702;23.312;2023-10-09T05:40:09;15.50;44.30
80695;DHT22;70059;42.702;23.312;2023-10-09T05:42:45;15.50;43.70
80695;DHT22;70059;42.702;23.312;2023-10-09T05:47:41;15.10;44.40
80695;DHT22;70059;42.702;23.312;2023-10-09T05:50:33;15.00;44.40
80695;DHT22;70059;42.702;23.312;2023-10-09T05:53:04;15.20;44.10
80695;DHT22;70059;42.702;23.312;2023-10-09T05:55:33;15.30;44.40
80695;DHT22;70059;42.702;23.312;2023-10-09T05:58:17;15.40;43.40
80695;DHT22;70059;42.702;23.312;2023-10-09T06:01:02;15.50;43.20
80695;DHT22;70059;42.702;23.312;2023-10-09T06:03:52;15.50;42.50
80695;DHT22;70059;42.702;23.312;2023-10-09T06:06:27;15.70;42.20
80695;DHT22;70059;42.702;23.312;2023-10-09T06:09:03;15.80;42.10
80695;DHT22;70059;42.702;23.312;2023-10-09T06:11:35;15.80;41.90
80695;DHT22;70059;42.702;23.312;2023-10-09T06:14:04;15.90;41.10
80695;DHT22;70059;42.702;23.312;2023-10-09T06:16:37;15.70;40.70
80695;DHT22;70059;42.702;23.312;2023-10-09T06:19:22;15.60;41.10
80695;DHT22;70059;42.702;23.312;2023-10-09T06:21:50;15.70;41.60
80695;DHT22;70059;42.702;23.312;2023-10-09T06:24:23;15.80;40.30
80695;DHT22;70059;42.702;23.312;2023-10-09T06:26:50;15.90;40.00
80695;DHT22;70059;42.702;23.312;2023-10-09T06:34:28;16.40;38.50
80695;DHT22;70059;42.702;23.312;2023-10-09T06:37:01;16.70;37.50
80695;DHT22;70059;42.702;23.312;2023-10-09T06:39:46;17.00;37.50
80695;DHT22;70059;42.702;23.312;2023-10-09T06:42:22;17.60;35.30
80695;DHT22;70059;42.702;23.312;2023-10-09T06:45:03;18.30;33.50
80695;DHT22;70059;42.702;23.312;2023-10-09T06:47:34;19.00;33.10
80695;DHT22;70059;42.702;23.312;2023-10-09T06:50:22;19.70;31.20
80695;DHT22;70059;42.702;23.312;2023-10-09T06:52:57;20.20;29.50
80695;DHT22;70059;42.702;23.312;2023-10-09T06:55:36;20.70;28.10
80695;DHT22;70059;42.702;23.312;2023-10-09T06:58:15;21.00;27.70
80695;DHT22;70059;42.702;23.312;2023-10-09T07:00:57;21.50;26.90
80695;DHT22;70059;42.702;23.312;2023-10-09T07:03:44;22.00;25.90
80695;DHT22;70059;42.702;23.312;2023-10-09T07:06:46;22.00;25.30
80695;DHT22;70059;42.702;23.312;2023-10-09T07:09:20;22.00;25.00
80695;DHT22;70059;42.702;23.312;2023-10-09T07:11:51;22.20;25.20
80695;DHT22;70059;42.702;23.312;2023-10-09T07:14:21;22.40;24.40
80695;DHT22;70059;42.702;23.312;2023-10-09T07:17:06;22.00;24.30
80695;DHT22;70059;42.702;23.312;2023-10-09T07:19:52;22.20;24.60
80695;DHT22;70059;42.702;23.312;2023-10-09T07:22:22;22.70;23.80
80695;DHT22;70059;42.702;23.312;2023-10-09T07:24:56;23.40;23.40
80695;DHT22;70059;42.702;23.312;2023-10-09T07:27:50;24.00;22.30
80695;DHT22;70059;42.702;23.312;2023-10-09T07:30:25;24.00;21.70
80695;DHT22;70059;42.702;23.312;2023-10-09T07:32:57;24.30;22.00
80695;DHT22;70059;42.702;23.312;2023-10-09T07:35:37;24.50;22.40
80695;DHT22;70059;42.702;23.312;2023-10-09T07:38:09;24.70;20.60
80695;DHT22;70059;42.702;23.312;2023-10-09T07:40:38;24.60;22.80
80695;DHT22;70059;42.702;23.312;2023-10-09T07:43:30;24.50;20.90
80695;DHT22;70059;42.702;23.312;2023-10-09T07:46:05;24.30;20.80
80695;DHT22;70059;42.702;23.312;2023-10-09T07:48:38;25.00;20.20
80695;DHT22;70059;42.702;23.312;2023-10-09T07:51:27;25.50;19.40
80695;DHT22;70059;42.702;23.312;2023-10-09T07:54:02;26.00;18.80
80695;DHT22;70059;42.702;23.312;2023-10-09T07:56:35;26.00;18.70
80695;DHT22;70059;42.702;23.312;2023-10-09T07:59:10;25.90;19.90
80695;DHT22;70059;42.702;23.312;2023-10-09T08:01:39;25.00;18.90
80695;DHT22;70059;42.702;23.312;2023-10-09T08:06:51;26.10;17.50
80695;DHT22;70059;42.702;23.312;2023-10-09T08:09:17;26.70;17.10
80695;DHT22;70059;42.702;23.312;2023-10-09T08:12:08;26.70;16.60
80695;DHT22;70059;42.702;23.312;2023-10-09T08:14:51;25.60;17.70
80695;DHT22;70059;42.702;23.312;2023-10-09T08:17:24;25.60;18.30
80695;DHT22;70059;42.702;23.312;2023-10-09T08:20:44;26.50;17.30
80695;DHT22;70059;42.702;23.312;2023-10-09T08:23:25;27.60;16.20
80695;DHT22;70059;42.702;23.312;2023-10-09T08:26:17;28.30;15.30
80695;DHT22;70059;42.702;23.312;2023-10-09T08:28:57;29.00;15.00
80695;DHT22;70059;42.702;23.312;2023-10-09T08:31:36;29.30;14.60
80695;DHT22;70059;42.702;23.312;2023-10-09T08:34:14;29.40;14.40
80695;DHT22;70059;42.702;23.312;2023-10-09T08:36:51;29.40;14.30
80695;DHT22;70059;42.702;23.312;2023-10-09T08:39:23;29.70;13.60
80695;DHT22;70059;42.702;23.312;2023-10-09T08:44:24;30.90;13.30
80695;DHT22;70059;42.702;23.312;2023-10-09T08:47:00;31.00;12.60
80695;DHT22;70059;42.702;23.312;2023-10-09T08:49:36;31.40;12.30
80695;DHT22;70059;42.702;23.312;2023-10-09T08:52:05;30.70;12.90
80695;DHT22;70059;42.702;23.312;2023-10-09T08:54:31;30.70;13.00
80695;DHT22;70059;42.702;23.312;2023-10-09T08:56:59;31.30;12.50
80695;DHT22;70059;42.702;23.312;2023-10-09T08:59:26;32.10;11.40
80695;DHT22;70059;42.702;23.312;2023-10-09T09:01:53;32.80;10.40
80695;DHT22;70059;42.702;23.312;2023-10-09T09:04:41;32.90;10.20
80695;DHT22;70059;42.702;23.312;2023-10-09T09:07:28;33.50;9.90
80695;DHT22;70059;42.702;23.312;2023-10-09T09:10:08;33.40;9.80
80695;DHT22;70059;42.702;23.312;2023-10-09T09:12:48;32.60;10.90
80695;DHT22;70059;42.702;23.312;2023-10-09T09:32:51;31.60;11.10
80695;DHT22;70059;42.702;23.312;2023-10-09T09:35:37;31.10;11.20
80695;DHT22;70059;42.702;23.312;2023-10-09T09:38:05;31.50;10.40
80695;DHT22;70059;42.702;23.312;2023-10-09T09:40:32;32.40;10.00
80695;DHT22;70059;42.702;23.312;2023-10-09T09:43:07;33.60;9.10
80695;DHT22;70059;42.702;23.312;2023-10-09T09:45:48;34.80;8.90
80695;DHT22;70059;42.702;23.312;2023-10-09T09:48:17;35.30;8.00
80695;DHT22;70059;42.702;23.312;2023-10-09T09:50:43;35.40;7.70
80695;DHT22;70059;42.702;23.312;2023-10-09T09:53:18;35.70;7.50
80695;DHT22;70059;42.702;23.312;2023-10-09T09:55:54;35.50;8.10
80695;DHT22;70059;42.702;23.312;2023-10-09T09:58:26;35.50;7.60
80695;DHT22;70059;42.702;23.312;2023-10-09T10:01:01;35.60;7.20
80695;DHT22;70059;42.702;23.312;2023-10-09T10:03:38;35.90;7.20
80695;DHT22;70059;42.702;23.312;2023-10-09T10:06:12;36.10;6.90
80695;DHT22;70059;42.702;23.312;2023-10-09T10:08:41;34.30;7.20
80695;DHT22;70059;42.702;23.312;2023-10-09T10:11:49;34.40;8.10
80695;DHT22;70059;42.702;23.312;2023-10-09T10:20:02;36.20;7.20
80695;DHT22;70059;42.702;23.312;2023-10-09T10:22:47;36.90;6.80
80695;DHT22;70059;42.702;23.312;2023-10-09T10:25:33;37.30;6.10
80695;DHT22;70059;42.702;23.312;2023-10-09T10:28:23;37.60;6.00
80695;DHT22;70059;42.702;23.312;2023-10-09T10:32:26;38.50;5.50
80695;DHT22;70059;42.702;23.312;2023-10-09T10:37:58;38.70;4.90
80695;DHT22;70059;42.702;23.312;2023-10-09T10:41:06;38.10;5.50
80695;DHT22;70059;42.702;23.312;2023-10-09T10:43:37;37.40;6.90
80695;DHT22;70059;42.702;23.312;2023-10-09T10:46:19;36.90;6.60
80695;DHT22;70059;42.702;23.312;2023-10-09T10:49:07;36.40;8.00
80695;DHT22;70059;42.702;23.312;2023-10-09T10:51:44;36.20;6.40
80695;DHT22;70059;42.702;23.312;2023-10-09T10:54:24;36.20;7.40
80695;DHT22;70059;42.702;23.312;2023-10-09T10:57:02;36.00;6.80
80695;DHT22;70059;42.702;23.312;2023-10-09T10:59:40;36.20;7.90
80695;DHT22;70059;42.702;23.312;2023-10-09T11:02:11;36.40;7.00
80695;DHT22;70059;42.702;23.312;2023-10-09T11:04:38;36.50;6.60
80695;DHT22;70059;42.702;23.312;2023-10-09T11:07:16;36.30;6.80
80695;DHT22;70059;42.702;23.312;2023-10-09T11:09:54;36.40;7.10
80695;DHT22;70059;42.702;23.312;2023-10-09T11:12:53;36.30;7.60
80695;DHT22;70059;42.702;23.312;2023-10-09T11:18:55;35.70;7.80
80695;DHT22;70059;42.702;23.312;2023-10-09T11:21:44;35.70;7.60
80695;DHT22;70059;42.702;23.312;2023-10-09T11:24:11;36.30;7.30
80695;DHT22;70059;42.702;23.312;2023-10-09T11:27:04;36.70;6.90
80695;DHT22;70059;42.702;23.312;2023-10-09T11:29:38;36.90;6.80
80695;DHT22;70059;42.702;23.312;2023-10-09T11:32:20;37.00;6.70
80695;DHT22;70059;42.702;23.312;2023-10-09T11:35:56;37.00;6.60
80695;DHT22;70059;42.702;23.312;2023-10-09T11:38:26;37.30;6.60
80695;DHT22;70059;42.702;23.312;2023-10-09T11:40:54;37.10;6.40
80695;DHT22;70059;42.702;23.312;2023-10-09T11:43:20;37.20;6.20
80695;DHT22;70059;42.702;23.312;2023-10-09T11:46:09;37.40;6.40
80695;DHT22;70059;42.702;23.312;2023-10-09T11:49:08;37.60;6.20
80695;DHT22;70059;42.702;23.312;2023-10-09T11:51:52;37.40;6.10
80695;DHT22;70059;42.702;23.312;2023-10-09T11:54:37;37.50;6.30
80695;DHT22;70059;42.702;23.312;2023-10-09T11:57:03;37.30;6.40
80695;DHT22;70059;42.702;23.312;2023-10-09T11:59:54;37.30;5.90
80695;DHT22;70059;42.702;23.312;2023-10-09T12:02:32;37.30;5.80
80695;DHT22;70059;42.702;23.312;2023-10-09T12:07:46;37.50;6.20
80695;DHT22;70059;42.702;23.312;2023-10-09T12:10:12;37.40;6.20
80695;DHT22;70059;42.702;23.312;2023-10-09T12:12:42;37.10;6.20
80695;DHT22;70059;42.702;23.312;2023-10-09T12:15:12;37.10;6.70
80695;DHT22;70059;42.702;23.312;2023-10-09T12:17:44;36.80;6.50
80695;DHT22;70059;42.702;23.312;2023-10-09T12:20:13;36.20;7.30
80695;DHT22;70059;42.702;23.312;2023-10-09T12:22:59;35.80;7.50
80695;DHT22;70059;42.702;23.312;2023-10-09T12:25:25;35.40;7.10
80695;DHT22;70059;42.702;23.312;2023-10-09T12:27:52;35.10;7.50
80695;DHT22;70059;42.702;23.312;2023-10-09T12:30:21;35.10;7.80
80695;DHT22;70059;42.702;23.312;2023-10-09T12:32:57;35.10;7.60
80695;DHT22;70059;42.702;23.312;2023-10-09T12:35:45;35.00;7.60
80695;DHT22;70059;42.702;23.312;2023-10-09T12:38:21;35.30;7.30
80695;DHT22;70059;42.702;23.312;2023-10-09T12:40:48;35.60;7.20
80695;DHT22;70059;42.702;23.312;2023-10-09T12:51:11;35.30;7.20
80695;DHT22;70059;42.702;23.312;2023-10-09T12:53:50;35.40;7.20
80695;DHT22;70059;42.702;23.312;2023-10-09T12:56:23;35.40;8.30
80695;DHT22;70059;42.702;23.312;2023-10-09T12:59:06;35.60;7.60
80695;DHT22;70059;42.702;23.312;2023-10-09T13:01:38;35.70;7.00
80695;DHT22;70059;42.702;23.312;2023-10-09T13:04:59;35.90;7.50
80695;DHT22;70059;42.702;23.312;2023-10-09T13:08:23;35.90;6.60
80695;DHT22;70059;42.702;23.312;2023-10-09T13:16:35;35.00;7.00
80695;DHT22;70059;42.702;23.312;2023-10-09T13:19:01;34.50;7.40
80695;DHT22;70059;42.702;23.312;2023-10-09T13:21:35;34.50;7.60
80695;DHT22;70059;42.702;23.312;2023-10-09T13:24:03;33.90;7.60
80695;DHT22;70059;42.702;23.312;2023-10-09T13:26:29;33.80;8.00
80695;DHT22;70059;42.702;23.312;2023-10-09T13:29:02;33.80;7.50
80695;DHT22;70059;42.702;23.312;2023-10-09T13:31:29;33.80;7.50
80695;DHT22;70059;42.702;23.312;2023-10-09T13:33:57;33.90;8.40
80695;DHT22;70059;42.702;23.312;2023-10-09T13:36:25;33.50;8.30
80695;DHT22;70059;42.702;23.312;2023-10-09T13:38:57;33.10;7.80
80695;DHT22;70059;42.702;23.312;2023-10-09T13:41:27;33.10;8.70
80695;DHT22;70059;42.702;23.312;2023-10-09T13:43:56;33.00;8.00
80695;DHT22;70059;42.702;23.312;2023-10-09T13:46:24;32.80;8.50
80695;DHT22;70059;42.702;23.312;2023-10-09T13:48:50;32.60;8.80
80695;DHT22;70059;42.702;23.312;2023-10-09T13:51:45;32.20;9.00
80695;DHT22;70059;42.702;23.312;2023-10-09T13:56:52;31.50;10.50
80695;DHT22;70059;42.702;23.312;2023-10-09T13:59:20;30.90;10.30
80695;DHT22;70059;42.702;23.312;2023-10-09T14:01:50;30.50;11.20
80695;DHT22;70059;42.702;23.312;2023-10-09T14:04:22;30.10;11.90
80695;DHT22;70059;42.702;23.312;2023-10-09T14:06:49;29.70;11.60
80695;DHT22;70059;42.702;23.312;2023-10-09T14:09:25;29.30;12.80
80695;DHT22;70059;42.702;23.312;2023-10-09T14:11:58;28.70;12.90
80695;DHT22;70059;42.702;23.312;2023-10-09T14:14:42;28.30;13.50
80695;DHT22;70059;42.702;23.312;2023-10-09T14:17:18;28.10;13.00
80695;DHT22;70059;42.702;23.312;2023-10-09T14:19:55;27.80;13.10
80695;DHT22;70059;42.702;23.312;2023-10-09T14:22:26;27.40;13.20
80695;DHT22;70059;42.702;23.312;2023-10-09T14:24:58;27.10;14.40
80695;DHT22;70059;42.702;23.312;2023-10-09T14:27:26;26.80;13.70
80695;DHT22;70059;42.702;23.312;2023-10-09T14:29:56;26.50;14.30
80695;DHT22;70059;42.702;23.312;2023-10-09T14:32:24;26.20;14.60
80695;DHT22;70059;42.702;23.312;2023-10-09T14:35:09;26.00;14.50
80695;DHT22;70059;42.702;23.312;2023-10-09T14:37:41;25.60;15.60
80695;DHT22;70059;42.702;23.312;2023-10-09T14:40:07;25.30;15.40
80695;DHT22;70059;42.702;23.312;2023-10-09T14:42:49;25.10;15.60
80695;DHT22;70059;42.702;23.312;2023-10-09T14:45:17;25.00;15.50
80695;DHT22;70059;42.702;23.312;2023-10-09T14:48:04;24.70;16.10
80695;DHT22;70059;42.702;23.312;2023-10-09T14:50:36;24.70;16.60
80695;DHT22;70059;42.702;23.312;2023-10-09T14:53:02;24.70;15.90
80695;DHT22;70059;42.702;23.312;2023-10-09T14:55:28;24.60;16.10
80695;DHT22;70059;42.702;23.312;2023-10-09T14:58:14;24.50;16.10
80695;DHT22;70059;42.702;23.312;2023-10-09T15:00:41;24.40;16.60
80695;DHT22;70059;42.702;23.312;2023-10-09T15:03:12;24.30;16.90
80695;DHT22;70059;42.702;23.312;2023-10-09T15:05:47;24.30;16.80
80695;DHT22;70059;42.702;23.312;2023-10-09T15:08:13;24.20;17.00
80695;DHT22;70059;42.702;23.312;2023-10-09T15:10:50;24.10;17.50
80695;DHT22;70059;42.702;23.312;2023-10-09T15:13:17;24.00;16.90
80695;DHT22;70059;42.702;23.312;2023-10-09T15:15:45;23.90;17.10
80695;DHT22;70059;42.702;23.312;2023-10-09T15:18:16;23.80;17.50
80695;DHT22;70059;42.702;23.312;2023-10-09T15:20:48;23.70;17.30
80695;DHT22;70059;42.702;23.312;2023-10-09T15:23:14;23.60;17.50
80695;DHT22;70059;42.702;23.312;2023-10-09T15:25:45;23.60;17.40
80695;DHT22;70059;42.702;23.312;2023-10-09T15:28:23;23.50;18.20
80695;DHT22;70059;42.702;23.312;2023-10-09T15:30:49;23.50;18.70
80695;DHT22;70059;42.702;23.312;2023-10-09T15:33:25;23.40;18.90
80695;DHT22;70059;42.702;23.312;2023-10-09T15:35:56;23.30;19.20
80695;DHT22;70059;42.702;23.312;2023-10-09T15:38:24;23.30;19.00
80695;DHT22;70059;42.702;23.312;2023-10-09T15:40:54;23.20;18.70
80695;DHT22;70059;42.702;23.312;2023-10-09T15:43:20;23.10;20.00
80695;DHT22;70059;42.702;23.312;2023-10-09T15:45:46;23.00;19.70
80695;DHT22;70059;42.702;23.312;2023-10-09T15:48:15;23.00;20.40
80695;DHT22;70059;42.702;23.312;2023-10-09T15:50:45;22.80;19.00
80695;DHT22;70059;42.702;23.312;2023-10-09T15:53:17;22.80;19.90
80695;DHT22;70059;42.702;23.312;2023-10-09T15:55:46;22.80;20.40
80695;DHT22;70059;42.702;23.312;2023-10-09T15:58:16;22.50;20.50
80695;DHT22;70059;42.702;23.312;2023-10-09T16:00:45;22.50;20.30
80695;DHT22;70059;42.702;23.312;2023-10-09T16:03:11;22.30;20.40
80695;DHT22;70059;42.702;23.312;2023-10-09T16:05:45;22.20;21.00
80695;DHT22;70059;42.702;23.312;2023-10-09T16:08:13;22.10;20.90
80695;DHT22;70059;42.702;23.312;2023-10-09T16:13:16;21.90;21.20
80695;DHT22;70059;42.702;23.312;2023-10-09T16:20:57;21.50;22.80
80695;DHT22;70059;42.702;23.312;2023-10-09T16:23:25;21.50;22.90
80695;DHT22;70059;42.702;23.312;2023-10-09T16:25:53;21.40;22.50
80695;DHT22;70059;42.702;23.312;2023-10-09T16:28:18;21.30;22.70
80695;DHT22;70059;42.702;23.312;2023-10-09T16:30:44;21.30;22.40
80695;DHT22;70059;42.702;23.312;2023-10-09T16:33:09;21.20;23.90
80695;DHT22;70059;42.702;23.312;2023-10-09T16:35:35;21.20;22.90
80695;DHT22;70059;42.702;23.312;2023-10-09T16:38:03;21.20;23.00
80695;DHT22;70059;42.702;23.312;2023-10-09T16:40:37;21.10;23.30
80695;DHT22;70059;42.702;23.312;2023-10-09T16:43:03;21.10;23.50
80695;DHT22;70059;42.702;23.312;2023-10-09T16:45:31;21.10;23.30
80695;DHT22;70059;42.702;23.312;2023-10-09T16:48:01;21.00;24.70
80695;DHT22;70059;42.702;23.312;2023-10-09T16:50:31;20.80;24.10
80695;DHT22;70059;42.702;23.312;2023-10-09T16:52:57;20.60;24.90
80695;DHT22;70059;42.702;23.312;2023-10-09T16:55:23;20.30;24.30
80695;DHT22;70059;42.702;23.312;2023-10-09T16:57:52;20.20;26.30
80695;DHT22;70059;42.702;23.312;2023-10-09T17:00:19;20.20;25.50
80695;DHT22;70059;42.702;23.312;2023-10-09T17:02:57;20.00;24.70
80695;DHT22;70059;42.702;23.312;2023-10-09T17:05:27;20.00;26.30
80695;DHT22;70059;42.702;23.312;2023-10-09T17:07:56;20.10;25.70
80695;DHT22;70059;42.702;23.312;2023-10-09T17:10:23;20.10;26.00
80695;DHT22;70059;42.702;23.312;2023-10-09T17:12:56;20.20;25.90
80695;DHT22;70059;42.702;23.312;2023-10-09T17:15:22;20.10;25.90
80695;DHT22;70059;42.702;23.312;2023-10-09T17:17:54;19.80;25.20
80695;DHT22;70059;42.702;23.312;2023-10-09T17:20:20;19.70;26.60
80695;DHT22;70059;42.702;23.312;2023-10-09T17:22:52;19.60;27.30
80695;DHT22;70059;42.702;23.312;2023-10-09T17:25:18;19.70;27.50
80695;DHT22;70059;42.702;23.312;2023-10-09T17:27:44;19.60;27.80
80695;DHT22;70059;42.702;23.312;2023-10-09T17:30:11;19.70;28.50
80695;DHT22;70059;42.702;23.312;2023-10-09T17:32:44;19.70;28.50
80695;DHT22;70059;42.702;23.312;2023-10-09T17:35:12;19.60;28.00
80695;DHT22;70059;42.702;23.312;2023-10-09T17:37:38;19.60;28.20
80695;DHT22;70059;42.702;23.312;2023-10-09T17:40:08;19.40;27.50
80695;DHT22;70059;42.702;23.312;2023-10-09T17:42:35;19.00;27.10
80695;DHT22;70059;42.702;23.312;2023-10-09T17:45:01;18.40;27.90
80695;DHT22;70059;42.702;23.312;2023-10-09T17:47:33;18.30;28.70
80695;DHT22;70059;42.702;23.312;2023-10-09T17:50:03;18.50;29.10
80695;DHT22;70059;42.702;23.312;2023-10-09T17:52:32;18.70;29.20
80695;DHT22;70059;42.702;23.312;2023-10-09T17:55:03;18.70;29.50